РУС

ENG

 
  Pireps - S7
 

Рейс SBI6016

  • Выполнял: Dmitry Schcurov
  • Аэропорт отправления: Voronezh (UUOO)
  • Аэропорт назначения: Pulkovo Airport (ULLI)
  • Тип ВС: E170 (VQ-BYA)
  • Время полёта: 04.54
  • Дата полёта: 30.07.2020
  • Маршрут: TS A829 IN L169 SUGIR R369 AJ R900 LANSO R962 GENPA
  • Статус: Одобрен

Детали полёта
Gross Revenue:
(63 load / $ 125.00 per unit
$ 7, 875.00
Fuel Cost:
(2524 fuel used @ 5.1 / unit)
$ 12, 872.40


Дополнительная информация о полёте:

Лог

Aircraft Used in flight is Embraer 170 Air Canada
23:23 Beacon Lights ON at 520 AGL
23:24 Engine 1 Started
23:24 Engine 2 Started
23:25Flaps 1 Selected at 520ft and 2kts
23:25 Taxi Lights ON at 520 AGL
23:25 Brakes are Released
23:29 Landing Lights ON at 520 AGL
23:29 Taxi Lights OFF at 520 AGL
23:29 Strobe Lights ON at 520 AGL
23:30 You Took off @ 153 Knots and Flaps at Position 1
Departure Weather
UUOO 292000Z 00000MPS CAVOK 21/10 Q1014 R12/090070 NOSIG RMK QFE747
23:31 Landing Gear Up @ 161 Knots and 770 Feet
23:32Flaps Retracted at 4440ft and 200kts
23:33 Landing Lights OFF at 6710 AGL
23:36 You exceeded maximum bank angle
00:55 Landing Lights ON at 6300 AGL
00:59Flaps 1 Selected at 2700ft and 190kts
00:59Flaps 2 Selected at 2680ft and 190kts
00:59 Landing Gear Down @ 176 Knots and 2280 Feet
00:59Flaps 3 Selected at 2260ft and 175kts
01:00Flaps 4 Selected at 1980ft and 150kts
01:01Flaps 5 Selected at 1990ft and 148kts
01:01Flaps 6 Selected at 1990ft and 148kts
01:03 You Landed @ 128 Knots and with -400 Vertical Speed
Arrival Weather
ULLI 291930Z 23002MPS CAVOK 15/11 Q1006 R28L/190055 NOSIG
01:04 Taxiing to gate
01:04 Landing Lights OFF at 90 AGL
01:04 Taxi Lights ON at 90 AGL
01:04 Strobe Lights OFF at 90 AGL
01:05Flaps Retracted at 90ft and 16kts
01:06 Brakes are On
01:06 Taxi Lights OFF at 90 AGL
01:06 Engine 1 Stoped
01:06 Engine 2 Stoped
01:07 Beacon Lights OFF at 90 AGL
Pirep logged with S7 Tracking 1.0.0.14



Общая оценка полета : 100%




Route Map



 
 
   
 
Новости

23.01.2020 - Работа сайта!

Друзья! 
После долгого перерыва работы сайта - мы занялись его оживлением.
Были жалобы, что не работала регистрация. Теперь работает!
Будут исправляться другие моменты и функционал снова будет доступен в полном объеме.
От лица администрации сайта и компании - приносим свои извинения за неудобства!
Добро пожаловать в S7!

   
 
Авторизация






Регистрация

Восстановить пароль?

Мы в соц. сетях

      



   
 





   
 


   
 


Яндекс.Метрика

www.va-s7.ru 2011-2020
Все права защищены.



Минуточку внимания!
Мы не имеем отношения к торговым маркам "S7" и "Globus" и их представителям.
Эмблемы на сайте являются собственностью соответствующих компаний.

аэронавигационная метеорологическая и любая другая информация с данного ресурса ни в коем случае не должна использоваться для реальных полетов